createdAt,value
2023-03-24T00:01:27.876Z,11.03
2023-03-24T00:03:54.423Z,13.30
2023-03-24T00:06:21.816Z,10.53
2023-03-24T00:08:48.466Z,12.30
2023-03-24T00:11:17.769Z,13.63
2023-03-24T00:13:46.311Z,14.00
2023-03-24T00:16:16.118Z,12.33
2023-03-24T00:18:42.646Z,16.43
2023-03-24T00:21:10.873Z,11.47
2023-03-24T00:23:37.659Z,11.97
2023-03-24T00:26:14.493Z,12.00
2023-03-24T00:28:43.450Z,13.73
2023-03-24T00:31:10.236Z,11.77
2023-03-24T00:33:37.167Z,11.03
2023-03-24T00:36:06.200Z,14.60
2023-03-24T00:38:34.207Z,21.27
2023-03-24T00:41:01.580Z,26.83
2023-03-24T00:43:28.872Z,35.43
2023-03-24T00:46:03.368Z,38.13
2023-03-24T00:48:30.175Z,48.43
2023-03-24T00:50:56.433Z,33.93
2023-03-24T00:53:25.080Z,21.80
2023-03-24T00:55:51.441Z,18.50
2023-03-24T00:58:18.984Z,11.90
2023-03-24T01:00:48.136Z,11.93
2023-03-24T01:03:15.541Z,17.00
2023-03-24T01:05:47.343Z,17.50
2023-03-24T01:08:19.608Z,12.40
2023-03-24T01:10:52.526Z,12.43
2023-03-24T01:13:29.116Z,15.97
2023-03-24T01:15:56.916Z,11.63
2023-03-24T01:18:23.918Z,13.83
2023-03-24T01:20:51.020Z,9.50
2023-03-24T01:23:25.034Z,9.27
2023-03-24T01:25:51.407Z,9.00
2023-03-24T01:28:22.726Z,8.47
2023-03-24T01:30:49.154Z,9.10
2023-03-24T01:33:15.671Z,9.23
2023-03-24T01:35:41.906Z,9.17
2023-03-24T01:38:10.818Z,11.33
2023-03-24T01:40:40.441Z,9.70
2023-03-24T01:43:17.527Z,10.40
2023-03-24T01:46:11.662Z,8.97
2023-03-24T01:48:42.084Z,10.27
2023-03-24T01:51:34.492Z,8.30
2023-03-24T01:54:07.817Z,6.37
2023-03-24T01:56:37.328Z,6.77
2023-03-24T01:59:09.914Z,5.77
2023-03-24T02:02:02.270Z,7.87
2023-03-24T02:04:46.115Z,7.20
2023-03-24T02:07:35.831Z,7.40
2023-03-24T02:10:06.500Z,8.50
2023-03-24T02:12:33.193Z,7.97
2023-03-24T02:15:04.078Z,7.17
2023-03-24T02:17:33.659Z,7.17
2023-03-24T02:20:22.739Z,6.27
2023-03-24T02:22:58.104Z,7.47
2023-03-24T02:25:55.560Z,6.30
2023-03-24T02:28:24.803Z,5.53
2023-03-24T02:31:28.422Z,6.47
2023-03-24T02:34:13.757Z,6.73
2023-03-24T02:37:06.834Z,6.00
2023-03-24T02:40:12.755Z,5.77
2023-03-24T02:43:32.019Z,5.93
2023-03-24T02:46:15.219Z,4.03
2023-03-24T02:48:48.178Z,5.20
2023-03-24T02:51:26.564Z,4.90
2023-03-24T02:54:07.383Z,4.47
2023-03-24T02:56:38.067Z,4.87
2023-03-24T02:59:40.233Z,5.43
2023-03-24T03:02:31.373Z,3.50
2023-03-24T03:05:13.119Z,4.47
2023-03-24T03:07:41.903Z,5.13
2023-03-24T03:10:15.575Z,3.87
2023-03-24T03:12:44.095Z,4.43
2023-03-24T03:15:16.019Z,6.57
2023-03-24T03:17:52.362Z,6.77
2023-03-24T03:20:23.869Z,6.17
2023-03-24T03:22:59.016Z,7.40
2023-03-24T03:25:30.225Z,6.30
2023-03-24T03:28:02.933Z,4.80
2023-03-24T03:30:37.249Z,4.47
2023-03-24T03:33:23.841Z,5.13
2023-03-24T03:36:02.054Z,7.67
2023-03-24T03:38:32.113Z,5.03
2023-03-24T03:41:01.574Z,6.73
2023-03-24T03:43:33.688Z,8.80
2023-03-24T03:46:03.117Z,5.00
2023-03-24T03:48:34.211Z,3.90
2023-03-24T03:51:13.067Z,2.93
2023-03-24T03:53:53.517Z,5.83
2023-03-24T03:56:23.623Z,6.77
2023-03-24T03:59:23.026Z,6.13
2023-03-24T04:01:49.691Z,3.87
2023-03-24T04:05:06.013Z,4.70
2023-03-24T04:08:25.269Z,4.03
2023-03-24T04:11:17.472Z,4.63
2023-03-24T04:14:15.644Z,6.03
2023-03-24T04:17:12.086Z,5.40
2023-03-24T04:19:44.044Z,5.33
2023-03-24T04:22:43.379Z,8.60
2023-03-24T04:25:36.547Z,5.20
2023-03-24T04:28:20.839Z,5.93
2023-03-24T04:31:06.610Z,6.13
2023-03-24T04:33:45.308Z,5.90
2023-03-24T04:36:21.631Z,4.10
2023-03-24T04:39:24.819Z,6.07
2023-03-24T04:41:52.342Z,6.43
2023-03-24T04:44:25.821Z,6.13
2023-03-24T04:47:11.803Z,5.00
2023-03-24T04:49:42.017Z,5.93
2023-03-24T04:52:08.820Z,7.13
2023-03-24T04:54:35.277Z,7.43
2023-03-24T04:57:05.467Z,5.30
2023-03-24T04:59:35.415Z,5.63
2023-03-24T05:02:04.943Z,4.87
2023-03-24T05:04:36.405Z,4.93
2023-03-24T05:07:23.720Z,4.90
2023-03-24T05:09:55.172Z,6.37
2023-03-24T05:12:21.569Z,6.47
2023-03-24T05:15:08.462Z,3.83
2023-03-24T05:17:36.225Z,6.13
2023-03-24T05:20:07.956Z,6.97
2023-03-24T05:22:36.917Z,5.87
2023-03-24T05:25:03.833Z,9.37
2023-03-24T05:27:30.728Z,7.90
2023-03-24T05:29:59.672Z,4.97
2023-03-24T05:32:29.623Z,5.67
2023-03-24T05:34:56.030Z,4.37
2023-03-24T05:37:32.202Z,5.03
2023-03-24T05:39:58.374Z,6.40
2023-03-24T05:42:43.684Z,4.30
2023-03-24T05:45:11.598Z,6.33
2023-03-24T05:47:38.631Z,4.37
2023-03-24T05:50:05.668Z,4.13
2023-03-24T05:52:33.143Z,6.33
2023-03-24T05:55:15.406Z,4.03
2023-03-24T05:57:42.846Z,5.50
2023-03-24T06:00:30.994Z,4.83
2023-03-24T06:03:06.379Z,4.20
2023-03-24T06:05:45.057Z,4.27
2023-03-24T06:08:11.771Z,5.13
2023-03-24T06:10:39.913Z,6.80
2023-03-24T06:13:08.438Z,4.70
2023-03-24T06:15:38.705Z,4.60
2023-03-24T06:18:30.031Z,5.00
2023-03-24T06:20:59.745Z,5.03
2023-03-24T06:23:29.285Z,4.50
2023-03-24T06:26:16.209Z,5.73
2023-03-24T06:28:51.142Z,5.00
2023-03-24T06:31:20.600Z,5.27
2023-03-24T06:33:53.377Z,6.23
2023-03-24T06:36:20.076Z,5.27
2023-03-24T06:38:47.110Z,4.40
2023-03-24T06:41:17.957Z,5.03
2023-03-24T06:43:46.196Z,4.97
2023-03-24T06:46:12.551Z,5.90
2023-03-24T06:48:42.141Z,6.80
2023-03-24T06:51:09.309Z,4.70
2023-03-24T06:53:40.402Z,6.10
2023-03-24T06:56:07.807Z,4.63
2023-03-24T06:58:40.199Z,5.93
2023-03-24T07:01:10.749Z,6.63
2023-03-24T07:03:53.279Z,5.23
2023-03-24T07:06:50.980Z,6.23
2023-03-24T07:09:26.942Z,4.77
2023-03-24T07:11:53.434Z,6.43
2023-03-24T07:14:21.288Z,5.63
2023-03-24T07:16:49.107Z,5.60
2023-03-24T07:19:45.249Z,6.43
2023-03-24T07:22:30.390Z,6.63
2023-03-24T07:25:19.661Z,6.87
2023-03-24T07:27:56.121Z,8.33
2023-03-24T07:30:30.083Z,6.23
2023-03-24T07:33:06.463Z,6.80
2023-03-24T07:35:33.016Z,7.60
2023-03-24T07:38:00.133Z,5.63
2023-03-24T07:40:27.794Z,4.50
2023-03-24T07:42:54.060Z,7.27
2023-03-24T07:45:30.019Z,4.27
2023-03-24T07:48:01.258Z,4.50
2023-03-24T07:50:32.080Z,4.33
2023-03-24T07:53:00.350Z,4.53
2023-03-24T07:55:27.543Z,5.33
2023-03-24T07:57:58.428Z,6.27
2023-03-24T08:00:28.464Z,5.20
2023-03-24T08:03:08.978Z,5.17
2023-03-24T08:05:54.668Z,4.27
2023-03-24T08:08:31.525Z,4.87
2023-03-24T08:10:58.380Z,5.00
2023-03-24T08:13:25.633Z,6.57
2023-03-24T08:15:53.045Z,11.30
2023-03-24T08:18:20.960Z,7.37
2023-03-24T08:20:56.115Z,5.93
2023-03-24T08:23:22.225Z,5.90
2023-03-24T08:25:50.044Z,7.40
2023-03-24T08:28:16.454Z,4.30
2023-03-24T08:30:42.955Z,5.03
2023-03-24T08:33:12.386Z,5.27
2023-03-24T08:35:40.102Z,5.23
2023-03-24T08:38:08.430Z,6.33
2023-03-24T08:40:37.002Z,5.07
2023-03-24T08:43:07.761Z,6.93
2023-03-24T08:45:35.273Z,6.33
2023-03-24T08:48:03.861Z,6.27
2023-03-24T08:50:34.689Z,5.80
2023-03-24T08:53:01.741Z,5.17
2023-03-24T08:55:28.220Z,5.30
2023-03-24T08:57:55.325Z,4.13
2023-03-24T09:00:22.223Z,7.67
2023-03-24T09:02:54.132Z,11.27
2023-03-24T09:05:36.538Z,9.83
2023-03-24T09:08:08.717Z,5.63
2023-03-24T09:10:35.754Z,4.87
2023-03-24T09:13:03.725Z,4.37
2023-03-24T09:15:30.955Z,5.23
2023-03-24T09:17:57.242Z,6.00
2023-03-24T09:20:24.128Z,5.43
2023-03-24T09:22:50.587Z,8.47
2023-03-24T09:25:19.601Z,8.37
2023-03-24T09:27:46.781Z,4.63
2023-03-24T09:30:16.084Z,6.77
2023-03-24T09:32:43.369Z,8.00
2023-03-24T09:35:10.248Z,9.23
2023-03-24T09:37:38.337Z,6.53
2023-03-24T09:40:07.138Z,5.50
2023-03-24T09:42:37.978Z,3.20
2023-03-24T09:45:12.828Z,4.33
2023-03-24T09:47:42.250Z,3.77
2023-03-24T09:50:26.521Z,3.77
2023-03-24T09:52:58.969Z,5.60
2023-03-24T09:55:28.152Z,2.93
2023-03-24T09:58:07.727Z,4.77
2023-03-24T10:00:35.987Z,5.87
2023-03-24T10:03:12.457Z,5.80
2023-03-24T10:05:47.799Z,8.43
2023-03-24T10:08:20.976Z,4.50
2023-03-24T10:11:00.712Z,3.33
2023-03-24T10:13:57.177Z,3.20
2023-03-24T10:17:04.161Z,3.67
2023-03-24T10:19:46.579Z,5.80
2023-03-24T10:22:30.332Z,3.60
2023-03-24T10:25:26.120Z,3.50
2023-03-24T10:28:19.288Z,4.07
2023-03-24T10:30:49.436Z,7.13
2023-03-24T10:33:17.068Z,4.57
2023-03-24T10:36:01.241Z,5.10
2023-03-24T10:38:27.895Z,5.13
2023-03-24T10:40:54.777Z,5.53
2023-03-24T10:43:23.349Z,5.80
2023-03-24T10:45:52.436Z,6.27
2023-03-24T10:48:43.689Z,4.47
2023-03-24T10:51:15.674Z,5.93
2023-03-24T10:53:47.087Z,5.20
2023-03-24T10:56:36.075Z,3.80
2023-03-24T10:59:02.620Z,4.87
2023-03-24T11:01:30.867Z,3.60
2023-03-24T11:04:06.458Z,5.70
2023-03-24T11:06:33.662Z,5.37
2023-03-24T11:09:09.567Z,7.37
2023-03-24T11:11:36.201Z,9.10
2023-03-24T11:14:03.859Z,6.50
2023-03-24T11:16:34.959Z,6.33
2023-03-24T11:19:04.366Z,7.27
2023-03-24T11:21:34.793Z,6.27
2023-03-24T11:24:15.190Z,5.33
2023-03-24T11:26:49.297Z,5.20
2023-03-24T11:29:21.517Z,6.27
2023-03-24T11:31:57.686Z,5.03
2023-03-24T11:34:33.438Z,4.43
2023-03-24T11:37:21.742Z,3.60
2023-03-24T11:40:17.729Z,4.40
2023-03-24T11:42:46.122Z,4.17
2023-03-24T11:45:28.008Z,5.87
2023-03-24T11:47:58.525Z,4.60
2023-03-24T11:50:37.906Z,4.53
2023-03-24T11:53:14.107Z,4.13
2023-03-24T11:55:50.304Z,4.77
2023-03-24T11:58:24.748Z,4.83
2023-03-24T12:01:10.419Z,3.83
2023-03-24T12:03:39.637Z,3.70
2023-03-24T12:06:24.989Z,4.57
2023-03-24T12:09:12.822Z,5.47
2023-03-24T12:12:08.148Z,4.83
2023-03-24T12:14:53.030Z,3.83
2023-03-24T12:17:23.780Z,3.60
2023-03-24T12:20:27.930Z,4.73
2023-03-24T12:23:04.112Z,4.27
2023-03-24T12:25:41.417Z,3.73
2023-03-24T12:28:11.413Z,4.03
2023-03-24T12:30:56.741Z,4.33
2023-03-24T12:33:55.297Z,3.30
2023-03-24T12:36:38.370Z,4.00
2023-03-24T12:39:23.594Z,4.47
2023-03-24T12:42:20.250Z,4.30
2023-03-24T12:45:04.585Z,2.77
2023-03-24T12:47:40.216Z,2.30
2023-03-24T12:50:19.408Z,3.67
2023-03-24T12:53:08.235Z,3.67
2023-03-24T12:55:57.005Z,2.40
2023-03-24T12:58:36.387Z,3.50
2023-03-24T13:01:40.066Z,2.30
2023-03-24T13:04:20.495Z,3.22
2023-03-24T13:07:17.533Z,2.85
2023-03-24T13:09:53.730Z,2.87
2023-03-24T13:12:29.694Z,2.30
2023-03-24T13:15:11.090Z,2.35
2023-03-24T13:17:47.656Z,1.23
2023-03-24T13:20:25.750Z,1.30
2023-03-24T13:22:53.075Z,1.88
2023-03-24T13:25:51.733Z,1.23
2023-03-24T13:28:27.553Z,1.57
2023-03-24T13:30:55.618Z,1.73
2023-03-24T13:33:29.298Z,1.13
2023-03-24T13:36:11.251Z,2.67
2023-03-24T13:38:54.267Z,1.37
2023-03-24T13:41:30.550Z,1.40
2023-03-24T13:44:00.863Z,1.03
2023-03-24T13:46:28.155Z,2.07
2023-03-24T13:48:57.156Z,1.50
2023-03-24T13:51:30.950Z,1.63
2023-03-24T13:54:04.750Z,2.50
2023-03-24T13:56:49.990Z,3.03
2023-03-24T13:59:35.272Z,1.77
2023-03-24T14:02:16.970Z,2.53
2023-03-24T14:04:46.895Z,1.83
2023-03-24T14:07:40.993Z,1.50
2023-03-24T14:10:14.288Z,3.63
2023-03-24T14:12:59.132Z,2.63
2023-03-24T14:15:39.750Z,2.00
2023-03-24T14:18:15.640Z,3.57
2023-03-24T14:21:02.026Z,2.90
2023-03-24T14:23:39.710Z,3.70
2023-03-24T14:26:12.853Z,2.43
2023-03-24T14:28:41.197Z,4.53
2023-03-24T14:31:16.985Z,3.93
2023-03-24T14:34:02.835Z,4.33
2023-03-24T14:36:38.537Z,3.37
2023-03-24T14:39:39.732Z,4.90
2023-03-24T14:42:30.943Z,3.87
2023-03-24T14:44:59.354Z,5.87
2023-03-24T14:47:36.392Z,4.27
2023-03-24T14:50:17.047Z,3.33
2023-03-24T14:52:50.427Z,4.17
2023-03-24T14:55:19.005Z,4.77
2023-03-24T14:57:52.371Z,4.60
2023-03-24T15:00:25.612Z,3.67
2023-03-24T15:02:55.118Z,4.10
2023-03-24T15:05:24.679Z,5.90
2023-03-24T15:08:35.907Z,5.30
2023-03-24T15:11:04.527Z,5.63
2023-03-24T15:13:39.671Z,4.40
2023-03-24T15:16:12.648Z,4.97
2023-03-24T15:19:01.472Z,9.93
2023-03-24T15:21:36.945Z,4.57
2023-03-24T15:24:27.661Z,6.10
2023-03-24T15:27:13.169Z,4.13
2023-03-24T15:29:41.779Z,5.97
2023-03-24T15:32:22.163Z,2.43
2023-03-24T15:34:58.337Z,2.20
2023-03-24T15:37:30.317Z,3.63
2023-03-24T15:40:09.057Z,2.33
2023-03-24T15:42:45.650Z,2.87
2023-03-24T15:45:28.897Z,1.23
2023-03-24T15:47:56.626Z,3.03
2023-03-24T15:50:30.192Z,2.03
2023-03-24T15:53:21.253Z,2.80
2023-03-24T15:56:15.191Z,2.13
2023-03-24T15:58:47.985Z,3.30
2023-03-24T16:01:19.376Z,1.47
2023-03-24T16:03:49.884Z,1.90
2023-03-24T16:06:29.427Z,2.90
2023-03-24T16:09:01.629Z,2.83
2023-03-24T16:11:31.424Z,3.00
2023-03-24T16:13:58.265Z,3.93
2023-03-24T16:16:28.534Z,3.43
2023-03-24T16:18:58.825Z,2.17
2023-03-24T16:21:30.858Z,2.97
2023-03-24T16:23:57.771Z,2.80
2023-03-24T16:26:29.862Z,1.93
2023-03-24T16:29:22.525Z,2.00
2023-03-24T16:31:51.550Z,1.17
2023-03-24T16:34:20.145Z,1.93
2023-03-24T16:36:48.759Z,2.03
2023-03-24T16:39:33.376Z,1.80
2023-03-24T16:42:00.000Z,2.07
2023-03-24T16:44:26.379Z,2.63
2023-03-24T16:46:54.231Z,1.60
2023-03-24T16:49:21.413Z,3.10
2023-03-24T16:51:48.415Z,3.30
2023-03-24T16:54:15.263Z,2.63
2023-03-24T16:56:41.816Z,1.93
2023-03-24T16:59:09.841Z,2.90
2023-03-24T17:01:40.463Z,2.73
2023-03-24T17:04:18.966Z,3.07
2023-03-24T17:06:50.006Z,2.63
2023-03-24T17:09:17.045Z,1.63
2023-03-24T17:11:52.152Z,3.17
2023-03-24T17:14:18.898Z,2.67
2023-03-24T17:16:48.512Z,2.97
2023-03-24T17:19:17.946Z,2.50
2023-03-24T17:22:05.935Z,3.90
2023-03-24T17:24:35.324Z,4.13
2023-03-24T17:27:02.642Z,5.23
2023-03-24T17:29:29.165Z,6.00
2023-03-24T17:31:55.781Z,4.90
2023-03-24T17:34:22.503Z,6.40
2023-03-24T17:36:50.108Z,9.67
2023-03-24T17:39:17.527Z,5.90
2023-03-24T17:41:45.122Z,7.90
2023-03-24T17:44:12.562Z,5.27
2023-03-24T17:46:39.286Z,4.57
2023-03-24T17:49:06.074Z,6.37
2023-03-24T17:51:32.861Z,5.97
2023-03-24T17:54:00.237Z,7.73
2023-03-24T17:56:29.873Z,6.60
2023-03-24T17:58:58.165Z,7.53
2023-03-24T18:01:28.645Z,6.67
2023-03-24T18:03:55.923Z,9.47
2023-03-24T18:06:22.615Z,8.83
2023-03-24T18:08:52.364Z,9.33
2023-03-24T18:11:19.669Z,79.73
2023-03-24T18:13:46.117Z,148.93
2023-03-24T18:16:21.319Z,20.37
2023-03-24T18:18:49.727Z,14.83
2023-03-24T18:21:16.980Z,15.10
2023-03-24T18:23:43.232Z,12.10
2023-03-24T18:26:09.859Z,9.00
2023-03-24T18:28:38.464Z,11.67
2023-03-24T18:31:15.218Z,13.07
2023-03-24T18:33:45.299Z,15.80
2023-03-24T18:36:15.794Z,19.07
2023-03-24T18:38:43.191Z,13.10
2023-03-24T18:41:12.214Z,10.13
2023-03-24T18:43:45.203Z,8.23
2023-03-24T18:46:12.278Z,9.30
2023-03-24T18:48:43.991Z,6.57
2023-03-24T18:51:11.223Z,6.40
2023-03-24T18:53:38.158Z,5.83
2023-03-24T18:56:06.021Z,5.93
2023-03-24T18:58:33.417Z,7.80
2023-03-24T19:01:10.594Z,6.10
2023-03-24T19:03:38.722Z,4.10
2023-03-24T19:06:07.557Z,4.80
2023-03-24T19:08:37.106Z,5.10
2023-03-24T19:11:04.891Z,3.20
2023-03-24T19:13:31.625Z,5.73
2023-03-24T19:15:59.516Z,6.07
2023-03-24T19:18:26.137Z,5.47
2023-03-24T19:20:58.085Z,4.20
2023-03-24T19:23:25.345Z,4.27
2023-03-24T19:25:55.471Z,6.67
2023-03-24T19:28:29.001Z,6.03
2023-03-24T19:30:56.886Z,6.90
2023-03-24T19:33:23.360Z,6.60
2023-03-24T19:35:51.002Z,6.10
2023-03-24T19:38:21.362Z,5.57
2023-03-24T19:40:48.615Z,6.50
2023-03-24T19:43:15.223Z,4.97
2023-03-24T19:45:42.120Z,6.17
2023-03-24T19:48:10.404Z,5.60
2023-03-24T19:50:37.689Z,5.57
2023-03-24T19:53:04.406Z,10.63
2023-03-24T19:55:31.552Z,10.03
2023-03-24T19:57:58.896Z,8.57
2023-03-24T20:00:26.212Z,12.37
2023-03-24T20:02:53.105Z,10.57
2023-03-24T20:05:20.525Z,12.13
2023-03-24T20:07:47.482Z,13.17
2023-03-24T20:10:14.142Z,19.67
2023-03-24T20:12:40.995Z,18.33
2023-03-24T20:15:08.270Z,23.73
2023-03-24T20:17:36.761Z,12.43
2023-03-24T20:20:09.472Z,11.20
2023-03-24T20:22:36.854Z,11.93
2023-03-24T20:25:04.493Z,11.67
2023-03-24T20:27:32.915Z,10.47
2023-03-24T20:29:59.970Z,12.93
2023-03-24T20:32:26.307Z,14.40
2023-03-24T20:34:53.723Z,14.50
2023-03-24T20:37:20.257Z,13.30
2023-03-24T20:39:46.903Z,11.07
2023-03-24T20:42:13.261Z,12.53
2023-03-24T20:44:40.428Z,15.33
2023-03-24T20:47:06.860Z,14.53
2023-03-24T20:49:33.781Z,11.67
2023-03-24T20:52:00.253Z,12.77
2023-03-24T20:54:28.144Z,13.07
2023-03-24T20:56:54.554Z,12.57
2023-03-24T20:59:21.615Z,13.67
2023-03-24T21:01:47.919Z,12.07
2023-03-24T21:04:16.858Z,10.70
2023-03-24T21:06:43.314Z,12.17
2023-03-24T21:09:10.602Z,10.03
2023-03-24T21:11:37.341Z,6.53
2023-03-24T21:14:03.932Z,8.50
2023-03-24T21:16:33.932Z,8.93
2023-03-24T21:19:03.876Z,8.37
2023-03-24T21:21:31.456Z,8.17
2023-03-24T21:23:58.260Z,7.80
2023-03-24T21:26:25.010Z,7.47
2023-03-24T21:28:52.165Z,8.53
2023-03-24T21:31:28.806Z,7.70
2023-03-24T21:33:56.730Z,6.90
2023-03-24T21:36:26.704Z,9.13
2023-03-24T21:38:53.257Z,7.37
2023-03-24T21:41:20.288Z,11.07
2023-03-24T21:43:50.435Z,5.70
2023-03-24T21:46:20.900Z,6.80
2023-03-24T21:48:52.120Z,8.90
2023-03-24T21:51:23.184Z,7.93
2023-03-24T21:53:51.209Z,7.40
2023-03-24T21:56:19.489Z,8.70
2023-03-24T21:58:46.341Z,6.37
2023-03-24T22:01:13.511Z,9.23
2023-03-24T22:03:40.370Z,9.07
2023-03-24T22:06:10.010Z,8.50
2023-03-24T22:08:37.997Z,9.73
2023-03-24T22:11:05.311Z,10.70
2023-03-24T22:13:33.127Z,8.60
2023-03-24T22:16:02.199Z,8.00
2023-03-24T22:18:31.883Z,8.13
2023-03-24T22:21:03.594Z,12.07
2023-03-24T22:23:32.730Z,11.23
2023-03-24T22:26:03.781Z,10.50
2023-03-24T22:28:32.889Z,10.20
2023-03-24T22:31:05.079Z,9.97
2023-03-24T22:33:31.543Z,6.77
2023-03-24T22:35:59.663Z,8.10
2023-03-24T22:38:26.939Z,9.87
2023-03-24T22:41:12.181Z,9.57
2023-03-24T22:43:40.238Z,9.40
2023-03-24T22:46:07.717Z,9.23
2023-03-24T22:48:34.467Z,9.17
2023-03-24T22:51:01.192Z,8.73
2023-03-24T22:53:27.771Z,8.93
2023-03-24T22:55:54.118Z,11.17
2023-03-24T22:58:21.612Z,15.63
2023-03-24T23:00:49.517Z,11.07
2023-03-24T23:03:16.470Z,9.57
2023-03-24T23:05:44.955Z,10.53
2023-03-24T23:08:13.694Z,12.17
2023-03-24T23:10:42.327Z,12.33
2023-03-24T23:13:09.844Z,12.03
2023-03-24T23:15:37.120Z,12.73
2023-03-24T23:18:03.985Z,13.03
2023-03-24T23:20:30.401Z,12.40
2023-03-24T23:22:56.869Z,12.13
2023-03-24T23:25:23.444Z,10.60
2023-03-24T23:27:50.096Z,11.30
2023-03-24T23:30:16.596Z,13.67
2023-03-24T23:32:43.304Z,14.37
2023-03-24T23:35:09.781Z,12.70
2023-03-24T23:37:38.169Z,13.40
2023-03-24T23:40:11.964Z,10.77
2023-03-24T23:42:40.078Z,13.27
2023-03-24T23:45:08.543Z,11.63
2023-03-24T23:47:36.140Z,10.57
2023-03-24T23:50:04.486Z,16.93
2023-03-24T23:52:30.961Z,17.70
2023-03-24T23:54:57.713Z,15.07
2023-03-24T23:57:24.195Z,16.63
2023-03-24T23:59:52.275Z,13.33
